sensor_id;sensor_type;location;lat;lon;timestamp;P1;durP1;ratioP1;P2;durP2;ratioP2
20181;SDS011;10250;50.756;6.172;2023-02-11T00:00:20;20.20;;;6.73;;
20181;SDS011;10250;50.756;6.172;2023-02-11T00:02:21;20.80;;;6.47;;
20181;SDS011;10250;50.756;6.172;2023-02-11T00:04:22;19.33;;;6.47;;
20181;SDS011;10250;50.756;6.172;2023-02-11T00:06:23;18.77;;;7.40;;
20181;SDS011;10250;50.756;6.172;2023-02-11T00:08:25;19.87;;;6.20;;
20181;SDS011;10250;50.756;6.172;2023-02-11T00:10:26;17.40;;;6.17;;
20181;SDS011;10250;50.756;6.172;2023-02-11T00:12:27;18.97;;;6.20;;
20181;SDS011;10250;50.756;6.172;2023-02-11T00:14:28;20.87;;;7.13;;
20181;SDS011;10250;50.756;6.172;2023-02-11T00:16:29;22.03;;;7.70;;
20181;SDS011;10250;50.756;6.172;2023-02-11T00:18:31;21.47;;;7.30;;
20181;SDS011;10250;50.756;6.172;2023-02-11T00:20:32;27.10;;;7.17;;
20181;SDS011;10250;50.756;6.172;2023-02-11T00:22:33;21.27;;;7.50;;
20181;SDS011;10250;50.756;6.172;2023-02-11T00:24:34;19.97;;;6.80;;
20181;SDS011;10250;50.756;6.172;2023-02-11T00:26:35;19.63;;;6.50;;
20181;SDS011;10250;50.756;6.172;2023-02-11T00:28:36;23.20;;;7.90;;
20181;SDS011;10250;50.756;6.172;2023-02-11T00:30:37;18.00;;;6.07;;
20181;SDS011;10250;50.756;6.172;2023-02-11T00:32:38;19.10;;;6.60;;
20181;SDS011;10250;50.756;6.172;2023-02-11T00:34:41;18.80;;;6.40;;
20181;SDS011;10250;50.756;6.172;2023-02-11T00:36:42;21.30;;;7.10;;
20181;SDS011;10250;50.756;6.172;2023-02-11T00:38:44;20.83;;;7.03;;
20181;SDS011;10250;50.756;6.172;2023-02-11T00:40:45;21.77;;;6.93;;
20181;SDS011;10250;50.756;6.172;2023-02-11T00:42:46;22.43;;;7.63;;
20181;SDS011;10250;50.756;6.172;2023-02-11T00:44:47;24.10;;;8.20;;
20181;SDS011;10250;50.756;6.172;2023-02-11T00:46:48;21.60;;;7.57;;
20181;SDS011;10250;50.756;6.172;2023-02-11T00:48:49;19.53;;;6.80;;
20181;SDS011;10250;50.756;6.172;2023-02-11T00:50:52;22.90;;;7.30;;
20181;SDS011;10250;50.756;6.172;2023-02-11T00:52:53;23.57;;;8.50;;
20181;SDS011;10250;50.756;6.172;2023-02-11T00:54:54;20.93;;;7.03;;
20181;SDS011;10250;50.756;6.172;2023-02-11T00:56:55;20.80;;;7.63;;
20181;SDS011;10250;50.756;6.172;2023-02-11T00:58:56;21.17;;;7.00;;
20181;SDS011;10250;50.756;6.172;2023-02-11T01:00:57;22.50;;;7.17;;
20181;SDS011;10250;50.756;6.172;2023-02-11T01:02:58;20.50;;;7.27;;
20181;SDS011;10250;50.756;6.172;2023-02-11T01:04:59;23.60;;;8.00;;
20181;SDS011;10250;50.756;6.172;2023-02-11T01:07:00;21.40;;;7.50;;
20181;SDS011;10250;50.756;6.172;2023-02-11T01:09:01;20.60;;;7.37;;
20181;SDS011;10250;50.756;6.172;2023-02-11T01:11:03;23.53;;;7.90;;
20181;SDS011;10250;50.756;6.172;2023-02-11T01:13:04;26.27;;;8.30;;
20181;SDS011;10250;50.756;6.172;2023-02-11T01:15:06;24.40;;;8.10;;
20181;SDS011;10250;50.756;6.172;2023-02-11T01:17:08;22.60;;;8.10;;
20181;SDS011;10250;50.756;6.172;2023-02-11T01:19:09;22.83;;;8.63;;
20181;SDS011;10250;50.756;6.172;2023-02-11T01:21:10;23.73;;;8.37;;
20181;SDS011;10250;50.756;6.172;2023-02-11T01:23:11;21.53;;;6.97;;
20181;SDS011;10250;50.756;6.172;2023-02-11T01:25:12;25.27;;;7.40;;
20181;SDS011;10250;50.756;6.172;2023-02-11T01:27:13;23.43;;;6.77;;
20181;SDS011;10250;50.756;6.172;2023-02-11T01:29:14;20.00;;;6.70;;
20181;SDS011;10250;50.756;6.172;2023-02-11T01:31:15;27.23;;;8.60;;
20181;SDS011;10250;50.756;6.172;2023-02-11T01:33:16;21.93;;;7.00;;
20181;SDS011;10250;50.756;6.172;2023-02-11T01:35:17;21.53;;;6.40;;
20181;SDS011;10250;50.756;6.172;2023-02-11T01:37:18;22.40;;;7.43;;
20181;SDS011;10250;50.756;6.172;2023-02-11T01:39:19;23.93;;;7.83;;
20181;SDS011;10250;50.756;6.172;2023-02-11T01:41:20;24.90;;;8.93;;
20181;SDS011;10250;50.756;6.172;2023-02-11T01:43:22;27.40;;;8.63;;
20181;SDS011;10250;50.756;6.172;2023-02-11T01:47:42;23.50;;;8.20;;
20181;SDS011;10250;50.756;6.172;2023-02-11T01:49:44;22.03;;;7.57;;
20181;SDS011;10250;50.756;6.172;2023-02-11T01:51:50;23.90;;;8.23;;
20181;SDS011;10250;50.756;6.172;2023-02-11T01:53:52;23.60;;;7.87;;
20181;SDS011;10250;50.756;6.172;2023-02-11T01:56:12;20.57;;;6.70;;
20181;SDS011;10250;50.756;6.172;2023-02-11T01:58:32;22.73;;;8.17;;
20181;SDS011;10250;50.756;6.172;2023-02-11T02:00:36;22.90;;;7.57;;
20181;SDS011;10250;50.756;6.172;2023-02-11T02:04:59;20.47;;;7.60;;
20181;SDS011;10250;50.756;6.172;2023-02-11T02:07:03;23.20;;;7.53;;
20181;SDS011;10250;50.756;6.172;2023-02-11T02:09:08;20.57;;;7.03;;
20181;SDS011;10250;50.756;6.172;2023-02-11T02:11:11;19.60;;;6.67;;
20181;SDS011;10250;50.756;6.172;2023-02-11T02:13:12;20.97;;;7.80;;
20181;SDS011;10250;50.756;6.172;2023-02-11T02:15:23;21.07;;;6.40;;
20181;SDS011;10250;50.756;6.172;2023-02-11T02:17:27;23.93;;;8.17;;
20181;SDS011;10250;50.756;6.172;2023-02-11T02:33:23;22.37;;;7.47;;
20181;SDS011;10250;50.756;6.172;2023-02-11T02:37:46;24.77;;;8.37;;
20181;SDS011;10250;50.756;6.172;2023-02-11T02:39:50;22.33;;;6.50;;
20181;SDS011;10250;50.756;6.172;2023-02-11T02:41:51;20.73;;;6.90;;
20181;SDS011;10250;50.756;6.172;2023-02-11T02:43:53;22.73;;;7.60;;
20181;SDS011;10250;50.756;6.172;2023-02-11T02:45:54;19.90;;;6.70;;
20181;SDS011;10250;50.756;6.172;2023-02-11T02:47:55;20.50;;;7.17;;
20181;SDS011;10250;50.756;6.172;2023-02-11T02:49:56;23.33;;;7.10;;
20181;SDS011;10250;50.756;6.172;2023-02-11T02:54:34;18.93;;;6.37;;
20181;SDS011;10250;50.756;6.172;2023-02-11T02:59:09;21.10;;;6.83;;
20181;SDS011;10250;50.756;6.172;2023-02-11T03:12:27;18.77;;;6.40;;
20181;SDS011;10250;50.756;6.172;2023-02-11T03:14:31;21.63;;;6.70;;
20181;SDS011;10250;50.756;6.172;2023-02-11T03:16:32;21.83;;;7.40;;
20181;SDS011;10250;50.756;6.172;2023-02-11T03:18:38;21.17;;;7.70;;
20181;SDS011;10250;50.756;6.172;2023-02-11T03:20:41;18.00;;;6.30;;
20181;SDS011;10250;50.756;6.172;2023-02-11T03:22:54;21.33;;;6.90;;
20181;SDS011;10250;50.756;6.172;2023-02-11T03:24:56;21.87;;;6.97;;
20181;SDS011;10250;50.756;6.172;2023-02-11T03:26:58;20.70;;;6.37;;
20181;SDS011;10250;50.756;6.172;2023-02-11T03:31:08;22.37;;;6.27;;
20181;SDS011;10250;50.756;6.172;2023-02-11T03:33:16;19.93;;;6.30;;
20181;SDS011;10250;50.756;6.172;2023-02-11T03:35:26;18.03;;;6.37;;
20181;SDS011;10250;50.756;6.172;2023-02-11T03:39:30;23.53;;;7.00;;
20181;SDS011;10250;50.756;6.172;2023-02-11T03:41:33;25.63;;;8.00;;
20181;SDS011;10250;50.756;6.172;2023-02-11T03:43:36;21.37;;;6.97;;
20181;SDS011;10250;50.756;6.172;2023-02-11T03:45:38;23.90;;;7.77;;
20181;SDS011;10250;50.756;6.172;2023-02-11T03:47:40;23.80;;;7.10;;
20181;SDS011;10250;50.756;6.172;2023-02-11T03:49:43;23.70;;;8.00;;
20181;SDS011;10250;50.756;6.172;2023-02-11T03:51:45;20.67;;;6.70;;
20181;SDS011;10250;50.756;6.172;2023-02-11T03:53:46;22.57;;;6.07;;
20181;SDS011;10250;50.756;6.172;2023-02-11T03:55:49;23.87;;;7.77;;
20181;SDS011;10250;50.756;6.172;2023-02-11T03:57:50;20.83;;;6.83;;
20181;SDS011;10250;50.756;6.172;2023-02-11T03:59:55;23.37;;;7.93;;
20181;SDS011;10250;50.756;6.172;2023-02-11T04:01:57;22.43;;;7.53;;
20181;SDS011;10250;50.756;6.172;2023-02-11T04:03:58;24.03;;;7.63;;
20181;SDS011;10250;50.756;6.172;2023-02-11T04:05:59;23.07;;;7.37;;
20181;SDS011;10250;50.756;6.172;2023-02-11T04:08:00;22.53;;;7.47;;
20181;SDS011;10250;50.756;6.172;2023-02-11T04:10:01;22.93;;;7.73;;
20181;SDS011;10250;50.756;6.172;2023-02-11T04:12:02;21.40;;;7.60;;
20181;SDS011;10250;50.756;6.172;2023-02-11T04:14:03;20.90;;;6.13;;
20181;SDS011;10250;50.756;6.172;2023-02-11T04:16:04;23.17;;;7.47;;
20181;SDS011;10250;50.756;6.172;2023-02-11T04:18:05;18.80;;;6.47;;
20181;SDS011;10250;50.756;6.172;2023-02-11T04:20:06;21.90;;;7.00;;
20181;SDS011;10250;50.756;6.172;2023-02-11T04:22:07;24.17;;;6.70;;
20181;SDS011;10250;50.756;6.172;2023-02-11T04:24:08;20.23;;;7.37;;
20181;SDS011;10250;50.756;6.172;2023-02-11T04:26:09;18.07;;;6.37;;
20181;SDS011;10250;50.756;6.172;2023-02-11T04:28:10;20.17;;;6.63;;
20181;SDS011;10250;50.756;6.172;2023-02-11T04:30:11;25.90;;;8.30;;
20181;SDS011;10250;50.756;6.172;2023-02-11T04:32:13;18.77;;;6.93;;
20181;SDS011;10250;50.756;6.172;2023-02-11T04:34:14;21.03;;;7.37;;
20181;SDS011;10250;50.756;6.172;2023-02-11T04:36:15;21.73;;;8.03;;
20181;SDS011;10250;50.756;6.172;2023-02-11T04:38:16;18.10;;;6.27;;
20181;SDS011;10250;50.756;6.172;2023-02-11T04:40:17;19.83;;;6.67;;
20181;SDS011;10250;50.756;6.172;2023-02-11T04:42:18;25.03;;;6.70;;
20181;SDS011;10250;50.756;6.172;2023-02-11T04:44:19;24.10;;;7.03;;
20181;SDS011;10250;50.756;6.172;2023-02-11T04:46:20;21.20;;;6.23;;
20181;SDS011;10250;50.756;6.172;2023-02-11T04:48:21;25.07;;;7.80;;
20181;SDS011;10250;50.756;6.172;2023-02-11T04:50:22;21.43;;;6.93;;
20181;SDS011;10250;50.756;6.172;2023-02-11T04:52:22;23.60;;;6.87;;
20181;SDS011;10250;50.756;6.172;2023-02-11T04:54:23;21.27;;;7.27;;
20181;SDS011;10250;50.756;6.172;2023-02-11T04:56:24;23.37;;;7.87;;
20181;SDS011;10250;50.756;6.172;2023-02-11T04:58:25;21.13;;;7.43;;
20181;SDS011;10250;50.756;6.172;2023-02-11T05:00:26;18.67;;;5.67;;
20181;SDS011;10250;50.756;6.172;2023-02-11T05:02:27;18.03;;;5.50;;
20181;SDS011;10250;50.756;6.172;2023-02-11T05:04:28;18.90;;;5.93;;
20181;SDS011;10250;50.756;6.172;2023-02-11T05:06:29;24.40;;;8.27;;
20181;SDS011;10250;50.756;6.172;2023-02-11T05:08:30;19.10;;;6.30;;
20181;SDS011;10250;50.756;6.172;2023-02-11T05:10:32;20.77;;;6.87;;
20181;SDS011;10250;50.756;6.172;2023-02-11T05:12:33;25.17;;;7.40;;
20181;SDS011;10250;50.756;6.172;2023-02-11T05:14:34;18.80;;;6.40;;
20181;SDS011;10250;50.756;6.172;2023-02-11T05:16:35;19.13;;;6.97;;
20181;SDS011;10250;50.756;6.172;2023-02-11T05:18:36;20.07;;;6.00;;
20181;SDS011;10250;50.756;6.172;2023-02-11T05:20:37;23.43;;;7.30;;
20181;SDS011;10250;50.756;6.172;2023-02-11T05:22:38;19.37;;;5.73;;
20181;SDS011;10250;50.756;6.172;2023-02-11T05:24:39;20.40;;;6.70;;
20181;SDS011;10250;50.756;6.172;2023-02-11T05:26:40;25.63;;;7.10;;
20181;SDS011;10250;50.756;6.172;2023-02-11T05:28:41;19.83;;;7.17;;
20181;SDS011;10250;50.756;6.172;2023-02-11T05:30:42;16.67;;;5.93;;
20181;SDS011;10250;50.756;6.172;2023-02-11T05:32:43;19.77;;;5.87;;
20181;SDS011;10250;50.756;6.172;2023-02-11T05:34:44;25.50;;;7.13;;
20181;SDS011;10250;50.756;6.172;2023-02-11T05:36:45;18.90;;;5.70;;
20181;SDS011;10250;50.756;6.172;2023-02-11T05:38:46;21.43;;;6.87;;
20181;SDS011;10250;50.756;6.172;2023-02-11T05:40:47;20.93;;;6.33;;
20181;SDS011;10250;50.756;6.172;2023-02-11T05:42:48;19.73;;;7.07;;
20181;SDS011;10250;50.756;6.172;2023-02-11T05:44:49;20.43;;;6.63;;
20181;SDS011;10250;50.756;6.172;2023-02-11T05:46:50;18.80;;;5.97;;
20181;SDS011;10250;50.756;6.172;2023-02-11T05:48:51;19.30;;;6.73;;
20181;SDS011;10250;50.756;6.172;2023-02-11T05:50:52;18.17;;;6.43;;
20181;SDS011;10250;50.756;6.172;2023-02-11T05:52:53;17.57;;;6.43;;
20181;SDS011;10250;50.756;6.172;2023-02-11T05:54:54;25.13;;;7.20;;
20181;SDS011;10250;50.756;6.172;2023-02-11T05:56:55;22.10;;;6.53;;
20181;SDS011;10250;50.756;6.172;2023-02-11T05:58:57;17.90;;;6.03;;
20181;SDS011;10250;50.756;6.172;2023-02-11T06:00:58;23.73;;;6.60;;
20181;SDS011;10250;50.756;6.172;2023-02-11T06:02:59;21.67;;;6.57;;
20181;SDS011;10250;50.756;6.172;2023-02-11T06:05:00;21.43;;;7.30;;
20181;SDS011;10250;50.756;6.172;2023-02-11T06:07:02;16.43;;;5.50;;
20181;SDS011;10250;50.756;6.172;2023-02-11T06:09:03;18.17;;;5.40;;
20181;SDS011;10250;50.756;6.172;2023-02-11T06:11:04;21.07;;;5.73;;
20181;SDS011;10250;50.756;6.172;2023-02-11T06:13:05;16.93;;;5.00;;
20181;SDS011;10250;50.756;6.172;2023-02-11T06:15:06;16.07;;;5.40;;
20181;SDS011;10250;50.756;6.172;2023-02-11T06:17:07;19.77;;;5.67;;
20181;SDS011;10250;50.756;6.172;2023-02-11T06:19:08;16.40;;;4.73;;
20181;SDS011;10250;50.756;6.172;2023-02-11T06:21:09;18.10;;;5.70;;
20181;SDS011;10250;50.756;6.172;2023-02-11T06:23:11;16.30;;;5.13;;
20181;SDS011;10250;50.756;6.172;2023-02-11T06:25:12;16.80;;;5.03;;
20181;SDS011;10250;50.756;6.172;2023-02-11T06:27:13;15.70;;;4.63;;
20181;SDS011;10250;50.756;6.172;2023-02-11T06:29:14;17.50;;;5.57;;
20181;SDS011;10250;50.756;6.172;2023-02-11T06:31:15;18.47;;;5.57;;
20181;SDS011;10250;50.756;6.172;2023-02-11T06:33:16;19.43;;;5.13;;
20181;SDS011;10250;50.756;6.172;2023-02-11T06:35:17;17.03;;;5.20;;
20181;SDS011;10250;50.756;6.172;2023-02-11T06:37:18;19.70;;;5.73;;
20181;SDS011;10250;50.756;6.172;2023-02-11T06:39:19;16.67;;;4.93;;
20181;SDS011;10250;50.756;6.172;2023-02-11T06:41:20;17.77;;;5.60;;
20181;SDS011;10250;50.756;6.172;2023-02-11T06:43:21;17.53;;;4.90;;
20181;SDS011;10250;50.756;6.172;2023-02-11T06:45:22;15.90;;;5.10;;
20181;SDS011;10250;50.756;6.172;2023-02-11T06:47:23;17.10;;;5.47;;
20181;SDS011;10250;50.756;6.172;2023-02-11T06:49:24;20.20;;;6.30;;
20181;SDS011;10250;50.756;6.172;2023-02-11T06:51:25;16.83;;;4.87;;
20181;SDS011;10250;50.756;6.172;2023-02-11T06:53:26;18.57;;;5.10;;
20181;SDS011;10250;50.756;6.172;2023-02-11T06:55:27;17.40;;;5.67;;
20181;SDS011;10250;50.756;6.172;2023-02-11T06:57:29;18.17;;;5.33;;
20181;SDS011;10250;50.756;6.172;2023-02-11T06:59:30;17.57;;;5.97;;
20181;SDS011;10250;50.756;6.172;2023-02-11T07:01:31;14.90;;;5.03;;
20181;SDS011;10250;50.756;6.172;2023-02-11T07:03:34;16.20;;;4.70;;
20181;SDS011;10250;50.756;6.172;2023-02-11T07:05:36;17.20;;;5.27;;
20181;SDS011;10250;50.756;6.172;2023-02-11T07:07:37;14.70;;;4.40;;
20181;SDS011;10250;50.756;6.172;2023-02-11T07:09:38;19.67;;;5.37;;
20181;SDS011;10250;50.756;6.172;2023-02-11T07:11:39;16.97;;;4.83;;
20181;SDS011;10250;50.756;6.172;2023-02-11T07:13:40;20.17;;;5.90;;
20181;SDS011;10250;50.756;6.172;2023-02-11T07:15:41;18.60;;;6.20;;
20181;SDS011;10250;50.756;6.172;2023-02-11T07:17:42;16.80;;;5.30;;
20181;SDS011;10250;50.756;6.172;2023-02-11T07:19:43;16.17;;;4.53;;
20181;SDS011;10250;50.756;6.172;2023-02-11T07:21:44;16.53;;;5.20;;
20181;SDS011;10250;50.756;6.172;2023-02-11T07:23:46;15.77;;;5.10;;
20181;SDS011;10250;50.756;6.172;2023-02-11T07:25:47;18.50;;;5.70;;
20181;SDS011;10250;50.756;6.172;2023-02-11T07:27:48;18.10;;;5.20;;
20181;SDS011;10250;50.756;6.172;2023-02-11T07:29:49;18.03;;;5.27;;
20181;SDS011;10250;50.756;6.172;2023-02-11T07:31:50;13.93;;;4.13;;
20181;SDS011;10250;50.756;6.172;2023-02-11T07:33:52;15.97;;;4.67;;
20181;SDS011;10250;50.756;6.172;2023-02-11T07:35:53;17.83;;;5.60;;
20181;SDS011;10250;50.756;6.172;2023-02-11T07:37:54;20.40;;;5.20;;
20181;SDS011;10250;50.756;6.172;2023-02-11T07:39:55;16.13;;;4.63;;
20181;SDS011;10250;50.756;6.172;2023-02-11T07:41:56;16.27;;;5.40;;
20181;SDS011;10250;50.756;6.172;2023-02-11T07:43:57;16.87;;;5.73;;
20181;SDS011;10250;50.756;6.172;2023-02-11T07:45:58;20.53;;;6.50;;
20181;SDS011;10250;50.756;6.172;2023-02-11T07:47:59;16.03;;;4.60;;
20181;SDS011;10250;50.756;6.172;2023-02-11T07:50:00;19.03;;;6.20;;
20181;SDS011;10250;50.756;6.172;2023-02-11T07:52:01;16.27;;;4.87;;
20181;SDS011;10250;50.756;6.172;2023-02-11T07:54:02;18.60;;;5.30;;
20181;SDS011;10250;50.756;6.172;2023-02-11T07:56:04;17.83;;;6.10;;
20181;SDS011;10250;50.756;6.172;2023-02-11T07:58:05;15.97;;;5.13;;
20181;SDS011;10250;50.756;6.172;2023-02-11T08:00:06;16.03;;;4.20;;
20181;SDS011;10250;50.756;6.172;2023-02-11T08:02:07;16.97;;;5.30;;
20181;SDS011;10250;50.756;6.172;2023-02-11T08:04:09;15.47;;;4.87;;
20181;SDS011;10250;50.756;6.172;2023-02-11T08:06:12;15.70;;;4.47;;
20181;SDS011;10250;50.756;6.172;2023-02-11T08:08:13;15.30;;;5.07;;
20181;SDS011;10250;50.756;6.172;2023-02-11T08:10:14;18.33;;;5.23;;
20181;SDS011;10250;50.756;6.172;2023-02-11T08:12:15;16.13;;;4.87;;
20181;SDS011;10250;50.756;6.172;2023-02-11T08:14:16;16.00;;;4.53;;
20181;SDS011;10250;50.756;6.172;2023-02-11T08:18:17;17.50;;;5.10;;
20181;SDS011;10250;50.756;6.172;2023-02-11T08:20:18;18.53;;;5.57;;
20181;SDS011;10250;50.756;6.172;2023-02-11T08:22:20;17.13;;;5.23;;
20181;SDS011;10250;50.756;6.172;2023-02-11T08:24:20;15.97;;;4.97;;
20181;SDS011;10250;50.756;6.172;2023-02-11T08:26:23;17.73;;;4.97;;
20181;SDS011;10250;50.756;6.172;2023-02-11T08:28:24;16.60;;;5.10;;
20181;SDS011;10250;50.756;6.172;2023-02-11T08:30:25;16.87;;;5.30;;
20181;SDS011;10250;50.756;6.172;2023-02-11T08:32:26;17.63;;;4.90;;
20181;SDS011;10250;50.756;6.172;2023-02-11T08:34:27;17.67;;;4.90;;
20181;SDS011;10250;50.756;6.172;2023-02-11T08:36:29;17.10;;;5.87;;
20181;SDS011;10250;50.756;6.172;2023-02-11T08:38:30;17.57;;;5.07;;
20181;SDS011;10250;50.756;6.172;2023-02-11T08:40:31;15.93;;;4.90;;
20181;SDS011;10250;50.756;6.172;2023-02-11T08:42:32;20.07;;;5.30;;
20181;SDS011;10250;50.756;6.172;2023-02-11T08:44:33;17.03;;;5.17;;
20181;SDS011;10250;50.756;6.172;2023-02-11T08:46:34;19.53;;;4.97;;
20181;SDS011;10250;50.756;6.172;2023-02-11T08:48:35;16.53;;;5.53;;
20181;SDS011;10250;50.756;6.172;2023-02-11T08:50:37;16.23;;;5.73;;
20181;SDS011;10250;50.756;6.172;2023-02-11T08:52:38;15.97;;;4.40;;
20181;SDS011;10250;50.756;6.172;2023-02-11T08:54:39;17.77;;;5.80;;
20181;SDS011;10250;50.756;6.172;2023-02-11T08:56:40;16.30;;;5.10;;
20181;SDS011;10250;50.756;6.172;2023-02-11T08:58:42;21.47;;;5.77;;
20181;SDS011;10250;50.756;6.172;2023-02-11T09:00:43;20.40;;;5.70;;
20181;SDS011;10250;50.756;6.172;2023-02-11T09:02:44;17.87;;;6.27;;
20181;SDS011;10250;50.756;6.172;2023-02-11T09:04:45;19.60;;;5.43;;
20181;SDS011;10250;50.756;6.172;2023-02-11T09:06:46;16.07;;;4.20;;
20181;SDS011;10250;50.756;6.172;2023-02-11T09:08:48;16.97;;;5.03;;
20181;SDS011;10250;50.756;6.172;2023-02-11T09:10:49;20.23;;;5.90;;
20181;SDS011;10250;50.756;6.172;2023-02-11T09:12:50;24.00;;;6.27;;
20181;SDS011;10250;50.756;6.172;2023-02-11T09:14:51;16.90;;;5.03;;
20181;SDS011;10250;50.756;6.172;2023-02-11T09:16:52;20.20;;;5.33;;
20181;SDS011;10250;50.756;6.172;2023-02-11T09:18:55;17.80;;;5.67;;
20181;SDS011;10250;50.756;6.172;2023-02-11T09:21:06;17.70;;;5.63;;
20181;SDS011;10250;50.756;6.172;2023-02-11T09:23:08;19.60;;;6.00;;
20181;SDS011;10250;50.756;6.172;2023-02-11T09:25:09;18.97;;;4.63;;
20181;SDS011;10250;50.756;6.172;2023-02-11T09:27:10;17.83;;;5.37;;
20181;SDS011;10250;50.756;6.172;2023-02-11T09:29:11;16.53;;;5.23;;
20181;SDS011;10250;50.756;6.172;2023-02-11T09:31:14;18.80;;;5.80;;
20181;SDS011;10250;50.756;6.172;2023-02-11T09:33:15;15.30;;;5.23;;
20181;SDS011;10250;50.756;6.172;2023-02-11T09:35:16;16.40;;;5.40;;
20181;SDS011;10250;50.756;6.172;2023-02-11T09:37:17;17.10;;;5.20;;
20181;SDS011;10250;50.756;6.172;2023-02-11T09:39:18;16.27;;;5.97;;
20181;SDS011;10250;50.756;6.172;2023-02-11T09:43:45;18.00;;;6.07;;
20181;SDS011;10250;50.756;6.172;2023-02-11T09:45:44;18.73;;;6.40;;
20181;SDS011;10250;50.756;6.172;2023-02-11T09:47:55;15.73;;;4.53;;
20181;SDS011;10250;50.756;6.172;2023-02-11T09:50:05;22.00;;;5.93;;
20181;SDS011;10250;50.756;6.172;2023-02-11T09:52:12;20.23;;;6.20;;
20181;SDS011;10250;50.756;6.172;2023-02-11T09:56:34;17.00;;;5.50;;
20181;SDS011;10250;50.756;6.172;2023-02-11T09:58:37;19.33;;;5.60;;
20181;SDS011;10250;50.756;6.172;2023-02-11T10:00:42;17.87;;;5.73;;
20181;SDS011;10250;50.756;6.172;2023-02-11T10:05:55;17.63;;;5.70;;
20181;SDS011;10250;50.756;6.172;2023-02-11T10:07:31;16.93;;;5.27;;
20181;SDS011;10250;50.756;6.172;2023-02-11T10:09:40;17.10;;;6.23;;
20181;SDS011;10250;50.756;6.172;2023-02-11T10:11:49;15.93;;;5.00;;
20181;SDS011;10250;50.756;6.172;2023-02-11T10:16:01;16.87;;;5.07;;
20181;SDS011;10250;50.756;6.172;2023-02-11T10:20:30;18.40;;;5.67;;
20181;SDS011;10250;50.756;6.172;2023-02-11T10:22:34;18.47;;;5.93;;
20181;SDS011;10250;50.756;6.172;2023-02-11T10:24:35;19.23;;;5.90;;
20181;SDS011;10250;50.756;6.172;2023-02-11T10:26:37;18.63;;;6.60;;
20181;SDS011;10250;50.756;6.172;2023-02-11T10:28:39;18.93;;;5.30;;
20181;SDS011;10250;50.756;6.172;2023-02-11T10:30:45;16.60;;;5.20;;
20181;SDS011;10250;50.756;6.172;2023-02-11T10:34:50;19.33;;;6.00;;
20181;SDS011;10250;50.756;6.172;2023-02-11T10:36:52;19.93;;;7.20;;
20181;SDS011;10250;50.756;6.172;2023-02-11T10:38:53;20.60;;;5.70;;
20181;SDS011;10250;50.756;6.172;2023-02-11T10:40:54;18.93;;;5.60;;
20181;SDS011;10250;50.756;6.172;2023-02-11T10:42:59;18.77;;;6.20;;
20181;SDS011;10250;50.756;6.172;2023-02-11T10:45:03;17.10;;;4.90;;
20181;SDS011;10250;50.756;6.172;2023-02-11T10:47:11;20.00;;;5.83;;
20181;SDS011;10250;50.756;6.172;2023-02-11T10:49:34;16.13;;;5.20;;
20181;SDS011;10250;50.756;6.172;2023-02-11T10:51:35;18.57;;;5.90;;
20181;SDS011;10250;50.756;6.172;2023-02-11T10:53:36;18.27;;;5.50;;
20181;SDS011;10250;50.756;6.172;2023-02-11T10:55:37;21.33;;;5.37;;
20181;SDS011;10250;50.756;6.172;2023-02-11T10:57:42;20.13;;;5.73;;
20181;SDS011;10250;50.756;6.172;2023-02-11T10:59:49;20.43;;;5.40;;
20181;SDS011;10250;50.756;6.172;2023-02-11T11:01:59;20.87;;;6.03;;
20181;SDS011;10250;50.756;6.172;2023-02-11T11:04:01;18.43;;;6.07;;
20181;SDS011;10250;50.756;6.172;2023-02-11T11:06:07;19.23;;;5.80;;
20181;SDS011;10250;50.756;6.172;2023-02-11T11:08:08;19.27;;;5.87;;
20181;SDS011;10250;50.756;6.172;2023-02-11T11:10:26;18.40;;;5.73;;
20181;SDS011;10250;50.756;6.172;2023-02-11T11:12:35;20.33;;;6.13;;
20181;SDS011;10250;50.756;6.172;2023-02-11T11:14:40;20.67;;;5.93;;
20181;SDS011;10250;50.756;6.172;2023-02-11T11:16:41;20.60;;;6.30;;
20181;SDS011;10250;50.756;6.172;2023-02-11T11:18:52;18.47;;;5.53;;
20181;SDS011;10250;50.756;6.172;2023-02-11T11:20:55;20.83;;;5.90;;
20181;SDS011;10250;50.756;6.172;2023-02-11T11:23:07;20.17;;;6.20;;
20181;SDS011;10250;50.756;6.172;2023-02-11T11:25:22;22.30;;;6.30;;
20181;SDS011;10250;50.756;6.172;2023-02-11T11:27:24;18.37;;;5.83;;
20181;SDS011;10250;50.756;6.172;2023-02-11T11:29:28;19.50;;;5.43;;
20181;SDS011;10250;50.756;6.172;2023-02-11T11:32:15;19.77;;;5.80;;
20181;SDS011;10250;50.756;6.172;2023-02-11T11:33:57;19.47;;;6.43;;
20181;SDS011;10250;50.756;6.172;2023-02-11T11:38:01;20.33;;;6.27;;
20181;SDS011;10250;50.756;6.172;2023-02-11T11:40:10;20.17;;;6.13;;
20181;SDS011;10250;50.756;6.172;2023-02-11T11:42:27;19.50;;;6.03;;
20181;SDS011;10250;50.756;6.172;2023-02-11T11:44:32;16.57;;;5.73;;
20181;SDS011;10250;50.756;6.172;2023-02-11T11:46:34;24.23;;;7.17;;
20181;SDS011;10250;50.756;6.172;2023-02-11T11:48:40;20.77;;;5.83;;
20181;SDS011;10250;50.756;6.172;2023-02-11T11:50:43;21.00;;;6.43;;
20181;SDS011;10250;50.756;6.172;2023-02-11T11:52:47;21.50;;;6.47;;
20181;SDS011;10250;50.756;6.172;2023-02-11T11:54:54;18.57;;;5.70;;
20181;SDS011;10250;50.756;6.172;2023-02-11T11:56:57;21.50;;;6.57;;
20181;SDS011;10250;50.756;6.172;2023-02-11T11:59:01;23.07;;;6.33;;
20181;SDS011;10250;50.756;6.172;2023-02-11T12:05:44;20.87;;;6.80;;
20181;SDS011;10250;50.756;6.172;2023-02-11T12:12:14;19.73;;;6.53;;
20181;SDS011;10250;50.756;6.172;2023-02-11T12:16:32;21.73;;;6.63;;
20181;SDS011;10250;50.756;6.172;2023-02-11T12:29:26;22.07;;;6.50;;
20181;SDS011;10250;50.756;6.172;2023-02-11T12:46:45;18.10;;;5.90;;
20181;SDS011;10250;50.756;6.172;2023-02-11T12:49:00;24.17;;;7.90;;
20181;SDS011;10250;50.756;6.172;2023-02-11T12:53:11;23.23;;;7.27;;
20181;SDS011;10250;50.756;6.172;2023-02-11T12:55:27;21.87;;;7.27;;
20181;SDS011;10250;50.756;6.172;2023-02-11T12:57:32;26.10;;;7.20;;
20181;SDS011;10250;50.756;6.172;2023-02-11T12:59:38;23.50;;;7.47;;
20181;SDS011;10250;50.756;6.172;2023-02-11T13:01:40;22.43;;;6.67;;
20181;SDS011;10250;50.756;6.172;2023-02-11T13:03:44;23.80;;;6.90;;
20181;SDS011;10250;50.756;6.172;2023-02-11T13:05:51;25.00;;;7.60;;
20181;SDS011;10250;50.756;6.172;2023-02-11T13:07:59;18.47;;;6.10;;
20181;SDS011;10250;50.756;6.172;2023-02-11T13:10:08;22.63;;;6.50;;
20181;SDS011;10250;50.756;6.172;2023-02-11T13:12:15;20.77;;;6.77;;
20181;SDS011;10250;50.756;6.172;2023-02-11T13:14:36;21.27;;;6.23;;
20181;SDS011;10250;50.756;6.172;2023-02-11T13:16:43;25.60;;;6.90;;
20181;SDS011;10250;50.756;6.172;2023-02-11T13:18:51;19.47;;;6.63;;
20181;SDS011;10250;50.756;6.172;2023-02-11T13:23:06;22.97;;;5.83;;
20181;SDS011;10250;50.756;6.172;2023-02-11T13:31:36;17.67;;;5.67;;
20181;SDS011;10250;50.756;6.172;2023-02-11T13:33:38;20.53;;;5.90;;
20181;SDS011;10250;50.756;6.172;2023-02-11T13:37:59;20.13;;;5.33;;
20181;SDS011;10250;50.756;6.172;2023-02-11T13:42:11;21.00;;;5.57;;
20181;SDS011;10250;50.756;6.172;2023-02-11T13:44:22;19.00;;;5.63;;
20181;SDS011;10250;50.756;6.172;2023-02-11T13:46:24;22.00;;;6.77;;
20181;SDS011;10250;50.756;6.172;2023-02-11T13:48:32;21.07;;;5.63;;
20181;SDS011;10250;50.756;6.172;2023-02-11T13:50:37;19.10;;;6.37;;
20181;SDS011;10250;50.756;6.172;2023-02-11T13:52:39;18.03;;;5.57;;
20181;SDS011;10250;50.756;6.172;2023-02-11T13:54:45;18.73;;;5.83;;
20181;SDS011;10250;50.756;6.172;2023-02-11T13:56:59;19.00;;;5.20;;
20181;SDS011;10250;50.756;6.172;2023-02-11T14:01:41;21.53;;;5.07;;